Time;durP1;ratioP1;P1;durP2;ratioP2;P2;SDS_P1;SDS_P2;PMS_P1;PMS_P2;Temp;Humidity;BMP_temperature;BMP_pressure;BME280_temperature;BME280_humidity;BME280_pressure;Samples;Min_cycle;Max_cycle;Signal;HPM_P1;HPM_P2
2022/08/30 00:03:15;;;;;;;2.00;1.40;;;;;;;29.15;38.58;99191.25;5132137;28;20101;-60
2022/08/30 00:05:41;;;;;;;2.50;1.60;;;;;;;29.12;38.48;99190.09;5131964;28;20430;-56
2022/08/30 00:08:07;;;;;;;1.73;1.20;;;;;;;29.15;38.49;99194.06;5131783;28;20103;-56
2022/08/30 00:10:33;;;;;;;2.20;1.50;;;;;;;29.14;38.68;99190.47;5131725;28;20039;-56
2022/08/30 00:12:59;;;;;;;1.80;1.30;;;;;;;29.13;38.77;99191.69;5131790;28;20035;-59
2022/08/30 00:15:25;;;;;;;1.90;1.40;;;;;;;29.14;38.58;99190.47;5131677;28;20073;-56
2022/08/30 00:17:51;;;;;;;1.98;1.45;;;;;;;29.14;38.93;99193.28;5131578;28;20043;-60
2022/08/30 00:20:20;;;;;;;2.33;1.40;;;;;;;29.15;38.51;99189.25;5131592;28;20051;-56
2022/08/30 00:22:46;;;;;;;1.90;1.40;;;;;;;29.11;38.75;99176.47;5131450;28;20078;-60
2022/08/30 00:25:13;;;;;;;1.77;1.23;;;;;;;29.13;38.88;99179.63;5131651;28;20079;-60
2022/08/30 00:27:38;;;;;;;1.88;1.27;;;;;;;29.14;38.77;99181.22;5131639;28;20057;-56
2022/08/30 00:30:05;;;;;;;1.80;1.38;;;;;;;29.12;38.70;99176.03;5131548;28;20407;-60
2022/08/30 00:32:30;;;;;;;2.00;1.42;;;;;;;29.14;38.47;99175.59;5131112;28;20043;-61
2022/08/30 00:34:56;;;;;;;2.00;1.35;;;;;;;29.13;38.83;99180.44;5131400;28;20047;-60
2022/08/30 00:37:22;;;;;;;1.85;1.30;;;;;;;29.14;38.75;99178.41;5130525;28;20118;-56
2022/08/30 00:39:47;;;;;;;2.00;1.33;;;;;;;29.13;38.83;99179.63;5131145;28;20126;-56
2022/08/30 00:42:14;;;;;;;2.10;1.42;;;;;;;29.13;38.77;99186.06;5131001;28;20043;-56
2022/08/30 00:44:41;;;;;;;2.10;1.50;;;;;;;29.12;38.67;99183.69;5131086;28;20047;-56
2022/08/30 00:47:07;;;;;;;1.80;1.30;;;;;;;29.12;38.88;99187.28;5130894;28;20392;-60
2022/08/30 00:49:34;;;;;;;1.95;1.45;;;;;;;29.13;38.85;99179.63;5131085;28;20544;-60
2022/08/30 00:52:01;;;;;;;1.77;1.30;;;;;;;29.09;38.78;99176.91;5131159;28;20516;-60
2022/08/30 00:54:29;;;;;;;1.75;1.20;;;;;;;29.11;38.84;99170.84;5130902;28;20050;-56
2022/08/30 00:56:55;;;;;;;1.95;1.40;;;;;;;29.09;38.71;99167.69;5130136;28;20046;-56
2022/08/30 00:59:23;;;;;;;1.92;1.40;;;;;;;29.10;38.91;99164.41;5130979;28;20055;-60
2022/08/30 01:01:49;;;;;;;1.80;1.30;;;;;;;29.10;38.60;99167.22;5130977;28;20130;-56
2022/08/30 01:04:15;;;;;;;2.25;1.60;;;;;;;29.10;38.87;99174.88;5130727;27;20139;-56
2022/08/30 01:06:41;;;;;;;1.77;1.38;;;;;;;29.09;38.56;99173.31;5130679;28;20047;-56
2022/08/30 01:09:08;;;;;;;2.20;1.38;;;;;;;29.11;38.26;99176.47;5130676;28;20454;-60
2022/08/30 01:11:36;;;;;;;1.50;1.17;;;;;;;29.09;38.68;99167.69;5130727;28;20043;-60
2022/08/30 01:14:02;;;;;;;1.70;1.30;;;;;;;29.11;38.70;99170.84;5130702;28;20572;-60
2022/08/30 01:16:30;;;;;;;1.90;1.30;;;;;;;29.09;38.67;99171.28;5130522;28;20530;-60
2022/08/30 01:18:57;;;;;;;1.85;1.33;;;;;;;29.10;38.70;99166.44;5130466;28;20407;-60
2022/08/30 01:21:46;;;;;;;2.13;1.40;;;;;;;29.10;38.64;99164.41;5127312;28;20039;-56
2022/08/30 01:24:13;;;;;;;1.90;1.30;;;;;;;29.09;38.79;99165.66;5130430;28;20044;-60
2022/08/30 01:26:39;;;;;;;1.92;1.35;;;;;;;29.11;38.80;99165.19;5130526;28;20066;-60
2022/08/30 01:29:09;;;;;;;2.10;1.40;;;;;;;29.11;38.72;99176.47;5130592;28;20038;-60
2022/08/30 01:31:35;;;;;;;2.08;1.42;;;;;;;29.10;38.80;99169.25;5130607;28;20043;-56
2022/08/30 01:34:06;;;;;;;1.80;1.30;;;;;;;29.08;39.01;99172.50;5130344;28;20044;-60
2022/08/30 01:36:34;;;;;;;1.55;1.10;;;;;;;29.10;39.06;99175.69;5126262;28;20427;-56
2022/08/30 01:39:00;;;;;;;2.10;1.45;;;;;;;29.08;38.84;99171.69;5130338;28;20047;-56
2022/08/30 01:41:34;;;;;;;2.00;1.52;;;;;;;29.09;38.76;99181.75;5130414;28;20646;-56
2022/08/30 01:44:06;;;;;;;1.90;1.30;;;;;;;29.08;38.88;99182.97;5130237;28;20686;-60
2022/08/30 01:46:35;;;;;;;1.70;1.30;;;;;;;29.09;39.03;99181.75;5130099;28;20527;-56
2022/08/30 01:49:03;;;;;;;2.20;1.42;;;;;;;29.08;38.92;99180.16;5130029;28;20049;-56
2022/08/30 01:51:29;;;;;;;1.85;1.20;;;;;;;29.08;39.13;99183.78;5130115;28;20059;-60
2022/08/30 01:53:56;;;;;;;1.88;1.40;;;;;;;29.08;39.14;99178.16;5129957;28;20074;-56
2022/08/30 01:56:23;;;;;;;1.80;1.30;;;;;;;29.09;39.11;99164.84;5130012;28;20117;-60
2022/08/30 01:58:50;;;;;;;1.90;1.40;;;;;;;29.10;39.39;99152.34;5130082;28;20047;-60
2022/08/30 02:01:18;;;;;;;2.00;1.40;;;;;;;29.09;39.16;99162.03;5130207;28;20108;-56
2022/08/30 02:03:45;;;;;;;2.00;1.38;;;;;;;29.09;39.25;99162.03;5129947;28;20550;-56
2022/08/30 02:06:14;;;;;;;1.67;1.20;;;;;;;29.06;39.08;99156.03;5130036;28;20053;-56
2022/08/30 02:08:40;;;;;;;1.75;1.30;;;;;;;29.04;39.63;99150.06;5129955;28;20043;-60
2022/08/30 02:11:08;;;;;;;1.63;1.20;;;;;;;29.08;39.49;99152.81;5130170;28;20078;-56
2022/08/30 02:13:36;;;;;;;1.77;1.20;;;;;;;29.08;39.29;99140.72;5129882;28;20466;-56
2022/08/30 02:16:02;;;;;;;1.90;1.27;;;;;;;29.09;39.32;99147.97;5130566;27;20055;-56
2022/08/30 02:18:28;;;;;;;1.92;1.40;;;;;;;29.05;39.24;99134.75;5133582;28;20051;-60
2022/08/30 02:20:53;;;;;;;1.58;1.20;;;;;;;29.06;39.52;99132.72;5133596;28;20043;-56
2022/08/30 02:23:18;;;;;;;1.58;1.13;;;;;;;29.06;39.50;99141.16;5133208;28;20044;-56
2022/08/30 02:25:45;;;;;;;2.10;1.33;;;;;;;29.08;39.40;99146.34;5133311;28;20050;-56
2022/08/30 02:28:12;;;;;;;2.13;1.48;;;;;;;29.06;39.46;99155.25;5133296;28;20032;-56
2022/08/30 02:30:38;;;;;;;1.88;1.33;;;;;;;29.03;39.58;99145.66;5133175;28;20463;-61
2022/08/30 02:33:03;;;;;;;1.90;1.30;;;;;;;29.05;39.23;99151.63;5133318;28;20129;-60
2022/08/30 02:35:29;;;;;;;1.73;1.23;;;;;;;29.06;39.43;99147.59;5133241;28;20082;-60
2022/08/30 02:37:54;;;;;;;1.80;1.33;;;;;;;29.07;39.53;99148.38;5133220;28;20088;-60
2022/08/30 02:40:21;;;;;;;2.00;1.40;;;;;;;29.07;39.38;99154.00;5133296;28;20051;-60
2022/08/30 02:42:47;;;;;;;1.92;1.40;;;;;;;29.01;39.68;99145.31;5133129;28;20046;-60
2022/08/30 02:45:12;;;;;;;1.83;1.30;;;;;;;29.04;39.51;99149.25;5132792;28;20035;-56
2022/08/30 02:47:38;;;;;;;2.10;1.60;;;;;;;29.04;39.65;99150.06;5133160;28;20096;-56
2022/08/30 02:50:05;;;;;;;1.90;1.40;;;;;;;29.05;39.69;99145.22;5133112;28;20485;-60
2022/08/30 02:52:31;;;;;;;2.05;1.40;;;;;;;29.03;39.75;99142.84;5132983;28;20175;-60
2022/08/30 02:54:57;;;;;;;2.00;1.30;;;;;;;29.04;39.68;99132.38;5132821;28;20450;-60
2022/08/30 02:57:22;;;;;;;2.05;1.38;;;;;;;29.03;39.88;99134.41;5132777;28;20490;-56
2022/08/30 02:59:48;;;;;;;2.13;1.45;;;;;;;29.04;39.81;99124.72;5133096;28;20043;-60
2022/08/30 03:02:14;;;;;;;1.80;1.20;;;;;;;29.04;39.94;99121.88;5133114;28;20464;-60
2022/08/30 03:04:40;;;;;;;1.98;1.40;;;;;;;29.04;39.78;99123.91;5132516;28;20468;-60
2022/08/30 03:07:07;;;;;;;1.63;1.13;;;;;;;29.00;39.74;99112.72;5132646;28;20039;-56
2022/08/30 03:09:33;;;;;;;2.00;1.48;;;;;;;29.04;39.82;99118.28;5131958;28;20091;-60
2022/08/30 03:11:59;;;;;;;2.08;1.20;;;;;;;29.03;39.45;99114.69;5132703;28;20104;-60
2022/08/30 03:14:25;;;;;;;2.03;1.45;;;;;;;29.03;39.91;99120.31;5132506;28;20047;-60
2022/08/30 03:16:50;;;;;;;1.70;1.20;;;;;;;29.03;39.84;99108.25;5132581;28;20470;-60
2022/08/30 03:19:16;;;;;;;1.58;1.17;;;;;;;29.02;39.99;99099.03;5132524;28;20506;-60
2022/08/30 03:21:41;;;;;;;1.80;1.30;;;;;;;29.03;39.65;99100.59;5132736;28;20134;-56
2022/08/30 03:24:07;;;;;;;2.00;1.20;;;;;;;29.02;39.56;99107.47;5132662;28;20043;-56
2022/08/30 03:26:33;;;;;;;2.00;1.30;;;;;;;29.00;39.78;99104.28;5132494;27;20121;-60
2022/08/30 03:28:59;;;;;;;2.00;1.40;;;;;;;29.00;39.68;99107.09;5132291;28;20043;-56
2022/08/30 03:31:24;;;;;;;1.60;1.15;;;;;;;28.99;39.73;99101.91;5132442;28;20043;-56
2022/08/30 03:33:50;;;;;;;2.22;1.45;;;;;;;29.03;39.63;99113.88;5132558;28;20130;-61
2022/08/30 03:36:15;;;;;;;2.20;1.58;;;;;;;29.03;40.03;99111.06;5132278;28;20049;-60
2022/08/30 03:38:41;;;;;;;2.10;1.50;;;;;;;29.02;39.97;99115.13;5132339;28;20047;-60
2022/08/30 03:41:07;;;;;;;2.13;1.58;;;;;;;29.01;40.23;99111.53;5132500;28;20043;-60
2022/08/30 03:43:33;;;;;;;2.40;1.48;;;;;;;29.00;39.88;99109.91;5132392;28;20172;-60
2022/08/30 03:45:59;;;;;;;2.25;1.60;;;;;;;29.00;39.91;99117.56;5132254;28;20518;-60
2022/08/30 03:48:25;;;;;;;2.45;1.58;;;;;;;29.02;40.20;99118.72;5132227;28;20116;-60
2022/08/30 03:50:50;;;;;;;2.55;1.70;;;;;;;29.02;40.04;99123.56;5132187;28;20129;-60
2022/08/30 03:53:16;;;;;;;2.35;1.70;;;;;;;29.02;40.12;99130.00;5132213;28;20039;-60
2022/08/30 03:55:41;;;;;;;2.20;1.60;;;;;;;29.03;40.12;99136.41;5132288;28;20050;-60
2022/08/30 03:58:07;;;;;;;2.53;1.90;;;;;;;29.04;40.02;99135.97;5132147;28;20671;-56
2022/08/30 04:00:32;;;;;;;2.10;1.40;;;;;;;29.03;39.99;99137.22;5132148;28;20046;-60
2022/08/30 04:02:57;;;;;;;2.60;1.63;;;;;;;29.01;40.17;99139.69;5132231;28;20134;-60
2022/08/30 04:05:23;;;;;;;2.50;1.85;;;;;;;29.02;40.30;99132.81;5132022;28;20070;-60
2022/08/30 04:07:48;;;;;;;2.17;1.63;;;;;;;29.02;40.21;99124.38;5131951;28;20078;-61
2022/08/30 04:10:14;;;;;;;2.20;1.50;;;;;;;29.01;40.21;99136.06;5131916;28;20066;-60
2022/08/30 04:12:40;;;;;;;2.30;1.70;;;;;;;29.00;40.22;99143.69;5131833;28;20388;-56
2022/08/30 04:15:08;;;;;;;1.92;1.50;;;;;;;29.00;40.57;99142.91;5131748;28;20047;-60
2022/08/30 04:17:33;;;;;;;2.47;1.73;;;;;;;29.01;40.26;99144.53;5131575;28;20055;-60
2022/08/30 04:19:59;;;;;;;2.20;1.50;;;;;;;29.01;40.33;99156.56;5131600;28;20047;-56
2022/08/30 04:22:24;;;;;;;2.53;1.70;;;;;;;29.01;40.26;99150.16;5131655;28;20039;-56
2022/08/30 04:24:49;;;;;;;2.10;1.60;;;;;;;29.01;40.38;99144.53;5131648;28;20043;-56
2022/08/30 04:27:18;;;;;;;2.65;1.70;;;;;;;29.03;40.33;99142.06;5131672;28;20046;-57
2022/08/30 04:29:44;;;;;;;2.25;1.60;;;;;;;29.02;40.22;99152.53;5131452;28;20423;-60
2022/08/30 04:32:10;;;;;;;2.28;1.60;;;;;;;28.99;40.53;99144.94;5131659;28;20506;-57
2022/08/30 04:34:35;;;;;;;2.13;1.55;;;;;;;28.99;40.46;99146.97;5131366;28;20122;-56
2022/08/30 04:37:00;;;;;;;3.10;1.55;;;;;;;29.02;40.42;99151.72;5131419;28;20449;-56
2022/08/30 04:39:26;;;;;;;2.33;1.50;;;;;;;29.01;40.56;99145.31;5130404;27;20139;-56
2022/08/30 04:41:51;;;;;;;2.03;1.50;;;;;;;29.01;40.43;99141.69;5131324;28;20046;-60
2022/08/30 04:44:17;;;;;;;2.17;1.42;;;;;;;29.02;40.59;99149.72;5131374;28;20122;-57
2022/08/30 04:46:42;;;;;;;2.05;1.50;;;;;;;29.02;40.22;99152.53;5131337;28;20051;-60
2022/08/30 04:49:07;;;;;;;1.83;1.42;;;;;;;29.01;40.54;99145.31;5131175;28;20118;-57
2022/08/30 04:51:33;;;;;;;1.90;1.45;;;;;;;28.97;40.55;99138.94;5131283;28;20049;-57
2022/08/30 04:53:58;;;;;;;2.30;1.45;;;;;;;29.01;40.54;99139.69;5131066;28;20039;-60
2022/08/30 04:56:24;;;;;;;1.67;1.27;;;;;;;29.02;40.41;99143.28;5130962;28;20156;-56
2022/08/30 04:58:52;;;;;;;1.70;1.20;;;;;;;29.03;40.59;99137.22;5130882;28;20067;-56
2022/08/30 05:01:23;;;;;;;1.77;1.23;;;;;;;29.04;40.49;99144.41;5130917;28;20114;-56
2022/08/30 05:03:49;;;;;;;2.08;1.40;;;;;;;29.04;40.36;99144.41;5130953;28;20039;-60
2022/08/30 05:06:15;;;;;;;1.88;1.27;;;;;;;29.04;40.26;99138.78;5130765;28;20040;-56
2022/08/30 05:08:41;;;;;;;2.05;1.58;;;;;;;29.07;40.41;99148.38;5130868;28;20054;-57
2022/08/30 05:11:08;;;;;;;1.95;1.50;;;;;;;29.09;40.36;99148.75;5130932;28;20086;-60
2022/08/30 05:13:35;;;;;;;1.92;1.25;;;;;;;29.08;40.15;99155.63;5130970;28;20142;-56
2022/08/30 05:16:01;;;;;;;1.88;1.25;;;;;;;29.11;40.18;99170.84;5130854;28;20446;-60
2022/08/30 05:18:27;;;;;;;2.00;1.33;;;;;;;29.11;40.28;99170.84;5130587;28;20055;-60
2022/08/30 05:21:10;;;;;;;1.80;1.33;;;;;;;29.12;40.51;99178.06;5130665;28;20503;-60
2022/08/30 05:23:36;;;;;;;2.35;1.60;;;;;;;29.11;40.31;99170.84;5130450;28;20448;-57
2022/08/30 05:26:08;;;;;;;1.88;1.27;;;;;;;29.13;40.58;99168.38;5130638;28;20046;-57
2022/08/30 05:28:34;;;;;;;4.30;1.45;;;;;;;29.13;40.79;99171.19;5129246;28;20402;-56
2022/08/30 05:31:00;;;;;;;2.15;1.50;;;;;;;29.15;40.80;99177.97;5130527;28;20559;-56
2022/08/30 05:33:25;;;;;;;1.75;1.10;;;;;;;29.16;40.68;99173.13;5130444;28;20047;-57
2022/08/30 05:35:51;;;;;;;2.13;1.55;;;;;;;29.19;40.32;99177.88;5112002;28;20138;-56
2022/08/30 05:38:16;;;;;;;1.75;1.30;;;;;;;29.20;40.36;99173.84;5130454;28;20448;-56
2022/08/30 05:40:42;;;;;;;1.80;1.20;;;;;;;29.21;40.29;99176.22;5110490;28;20134;-57
2022/08/30 05:43:09;;;;;;;2.33;1.40;;;;;;;29.23;40.18;99178.59;5109997;28;20051;-60
2022/08/30 05:45:35;;;;;;;1.85;1.30;;;;;;;29.23;40.32;99170.94;5109819;28;20039;-57
2022/08/30 05:48:00;;;;;;;1.65;1.30;;;;;;;29.24;40.31;99164.06;5109917;28;20063;-60
2022/08/30 05:50:26;;;;;;;2.10;1.45;;;;;;;29.20;39.87;99152.09;5108683;28;20086;-56
2022/08/30 05:52:51;;;;;;;1.77;1.25;;;;;;;29.24;40.14;99166.09;5109696;28;20050;-56
2022/08/30 05:55:17;;;;;;;2.13;1.20;;;;;;;29.23;40.23;99170.94;5109834;28;20127;-57
2022/08/30 05:57:43;;;;;;;1.70;1.20;;;;;;;29.25;39.96;99176.94;5109465;28;20036;-57
2022/08/30 06:00:12;;;;;;;2.00;1.30;;;;;;;29.26;39.83;99174.91;5109567;28;20559;-56
2022/08/30 06:02:39;;;;;;;1.95;1.40;;;;;;;29.20;40.23;99183.06;5109577;28;20047;-57
2022/08/30 06:05:05;;;;;;;1.77;1.20;;;;;;;28.98;40.33;99188.41;5091221;28;20063;-56
2022/08/30 06:07:31;;;;;;;2.05;1.50;;;;;;;28.77;40.09;99178.38;5109452;28;20062;-57
2022/08/30 06:09:56;;;;;;;1.98;1.50;;;;;;;28.54;40.57;99175.66;5109727;28;20516;-56
2022/08/30 06:12:21;;;;;;;2.10;1.50;;;;;;;28.44;41.53;99180.28;5109534;28;20083;-56
2022/08/30 06:14:47;;;;;;;2.00;1.52;;;;;;;28.41;41.85;99169.88;5109487;28;20043;-57
2022/08/30 06:17:12;;;;;;;2.17;1.40;;;;;;;28.44;41.53;99160.59;5109555;28;20048;-56
2022/08/30 06:19:38;;;;;;;2.10;1.40;;;;;;;28.47;41.49;99161.75;5109290;28;20496;-57
2022/08/30 06:22:03;;;;;;;1.95;1.23;;;;;;;28.53;41.49;99154.38;5109225;28;20050;-57
2022/08/30 06:24:29;;;;;;;2.00;1.40;;;;;;;28.53;41.38;99162.81;5109328;28;20097;-60
2022/08/30 06:26:54;;;;;;;2.30;1.40;;;;;;;28.54;41.58;99166.44;5109374;28;20058;-56
2022/08/30 06:29:21;;;;;;;2.13;1.50;;;;;;;28.57;41.42;99171.19;5109407;28;20055;-60
2022/08/30 06:31:47;;;;;;;1.92;1.30;;;;;;;28.56;41.18;99164.75;5109004;28;20047;-56
2022/08/30 06:34:13;;;;;;;2.15;1.45;;;;;;;28.59;41.04;99172.34;5108998;28;20040;-60
2022/08/30 06:36:39;;;;;;;1.80;1.30;;;;;;;28.61;41.01;99189.59;5109218;28;20426;-57
2022/08/30 06:39:05;;;;;;;1.92;1.25;;;;;;;28.59;40.85;99180.00;5108957;28;20089;-57
2022/08/30 06:41:32;;;;;;;2.28;1.60;;;;;;;28.55;41.06;99179.28;5109051;28;20047;-60
2022/08/30 06:44:00;;;;;;;1.90;1.45;;;;;;;28.55;40.82;99176.47;5108988;28;20051;-56
2022/08/30 06:46:29;;;;;;;1.95;1.40;;;;;;;28.59;40.62;99180.00;5109000;28;20051;-56
2022/08/30 06:48:55;;;;;;;2.53;1.38;;;;;;;28.60;40.72;99181.59;5108872;28;20047;-59
2022/08/30 06:51:27;;;;;;;2.20;1.50;;;;;;;28.57;40.80;99177.59;5108837;28;20039;-60
2022/08/30 06:53:53;;;;;;;1.98;1.35;;;;;;;28.56;40.77;99169.59;5101911;28;20163;-61
2022/08/30 06:56:20;;;;;;;2.10;1.60;;;;;;;28.56;40.74;99172.41;5083817;28;20074;-60
2022/08/30 06:58:46;;;;;;;4.18;1.40;;;;;;;28.57;40.65;99174.78;5091874;28;20109;-57
2022/08/30 07:01:18;;;;;;;2.13;1.60;;;;;;;28.55;40.82;99182.09;5091803;28;20031;-57
2022/08/30 07:03:44;;;;;;;2.17;1.40;;;;;;;28.55;40.56;99174.44;5093627;28;20565;-67
2022/08/30 07:06:11;;;;;;;9.73;2.47;;;;;;;28.60;41.06;99173.13;5099591;28;20079;-69
2022/08/30 07:08:37;;;;;;;6.10;3.30;;;;;;;28.59;41.70;99174.38;5097872;28;20083;-66
2022/08/30 07:11:04;;;;;;;10.55;4.05;;;;;;;28.57;41.73;99188.06;5090244;28;20419;-64
2022/08/30 07:13:31;;;;;;;6.97;3.85;;;;;;;28.57;41.50;99182.44;5091224;28;20036;-67
2022/08/30 07:15:56;;;;;;;10.13;4.03;;;;;;;28.53;40.94;99185.34;5101659;28;20040;-56
2022/08/30 07:21:14;;;;;;;5.78;3.53;;;;;;;28.51;40.44;99188.59;5092356;28;20470;-65
2022/08/30 07:23:41;;;;;;;5.13;3.13;;;;;;;28.52;40.64;99184.53;5089923;28;20045;-56
2022/08/30 07:26:11;;;;;;;7.10;3.63;;;;;;;28.48;41.29;99185.84;5088358;28;20372;-57
2022/08/30 07:28:41;;;;;;;9.05;4.18;;;;;;;28.49;41.58;99195.84;5098049;28;20560;-67
2022/08/30 07:31:07;;;;;;;12.35;4.05;;;;;;;28.45;41.71;99190.31;5095521;28;20063;-56
2022/08/30 07:33:33;;;;;;;6.05;3.35;;;;;;;28.40;42.11;99190.81;5094437;28;20051;-56
2022/08/30 07:35:58;;;;;;;8.15;3.72;;;;;;;28.43;41.79;99195.59;5093847;28;20408;-56
2022/08/30 07:38:26;;;;;;;6.90;3.28;;;;;;;28.42;41.65;99199.59;5096663;28;20047;-68
2022/08/30 07:40:52;;;;;;;7.30;3.38;;;;;;;28.48;41.47;99197.09;5091879;28;20450;-57
2022/08/30 07:43:18;;;;;;;5.75;3.45;;;;;;;28.48;41.33;99206.31;5094978;28;20094;-65
2022/08/30 07:45:44;;;;;;;6.93;3.20;;;;;;;28.50;41.20;99200.25;5084334;28;20091;-56
2022/08/30 07:48:11;;;;;;;9.95;3.65;;;;;;;28.50;40.78;99212.34;5089982;28;20044;-56
2022/08/30 07:50:37;;;;;;;10.27;3.50;;;;;;;28.45;40.87;99217.66;5089701;28;20113;-57
2022/08/30 07:53:03;;;;;;;9.27;3.50;;;;;;;28.46;40.60;99211.59;5092100;28;20036;-56
2022/08/30 07:55:29;;;;;;;8.77;3.47;;;;;;;28.47;40.45;99212.38;5093537;28;20150;-57
2022/08/30 07:57:54;;;;;;;8.52;3.92;;;;;;;28.45;40.52;99206.41;5095803;28;20071;-57
2022/08/30 08:00:19;;;;;;;5.75;3.42;;;;;;;28.49;40.38;99215.56;5092766;28;20392;-57
2022/08/30 08:02:45;;;;;;;6.60;3.45;;;;;;;28.50;40.29;99223.59;5096777;28;20039;-66
2022/08/30 08:05:10;;;;;;;10.02;3.60;;;;;;;28.48;40.16;99217.56;5099574;28;20035;-66
2022/08/30 08:07:36;;;;;;;9.23;3.55;;;;;;;28.49;40.13;99224.78;5092577;28;20052;-66
2022/08/30 08:10:03;;;;;;;8.77;3.53;;;;;;;28.49;40.14;99227.59;5088836;28;20048;-58
2022/08/30 08:12:28;;;;;;;7.05;3.55;;;;;;;28.51;40.32;99222.34;5109439;28;20044;-66
2022/08/30 08:14:54;;;;;;;7.50;3.20;;;;;;;28.56;39.93;99225.88;5103155;28;20059;-57
2022/08/30 08:17:19;;;;;;;5.78;3.53;;;;;;;28.54;39.89;99229.13;5090202;28;20508;-57
2022/08/30 08:19:45;;;;;;;5.40;3.40;;;;;;;28.54;39.66;99233.97;5089912;28;20428;-57
2022/08/30 08:22:11;;;;;;;6.80;3.08;;;;;;;28.57;39.55;99224.66;5090731;28;20056;-67
2022/08/30 08:24:37;;;;;;;4.57;3.08;;;;;;;28.56;39.56;99237.94;5090449;28;20104;-67
2022/08/30 08:27:02;;;;;;;5.63;3.28;;;;;;;28.60;39.43;99244.28;5090449;28;20052;-65
2022/08/30 08:29:28;;;;;;;7.65;3.47;;;;;;;28.64;39.21;99245.00;5090116;28;20520;-66
2022/08/30 08:31:56;;;;;;;7.72;3.35;;;;;;;28.65;39.03;99243.00;5089994;28;20130;-57
2022/08/30 08:34:24;;;;;;;5.63;3.10;;;;;;;28.67;38.95;99243.34;5099037;28;20046;-57
2022/08/30 08:36:50;;;;;;;8.02;3.47;;;;;;;28.65;38.86;99243.78;5099928;28;20087;-66
2022/08/30 08:39:16;;;;;;;7.57;2.95;;;;;;;28.68;38.63;99244.94;5102158;28;20047;-66
2022/08/30 08:42:01;;;;;;;7.93;3.35;;;;;;;28.73;38.70;99247.25;5101201;28;20432;-56
2022/08/30 08:44:46;;;;;;;4.93;3.10;;;;;;;28.69;38.76;99240.88;5105777;28;20067;-56
2022/08/30 08:47:27;;;;;;;5.88;3.35;;;;;;;28.65;39.03;99245.81;5107646;28;20449;-69
2022/08/30 08:49:58;;;;;;;7.15;2.88;;;;;;;28.67;39.15;99246.16;5102662;28;20636;-66
2022/08/30 08:55:34;;;;;;;6.75;3.30;;;;;;;28.72;38.94;99240.00;5108678;28;20074;-57
2022/08/30 08:58:00;;;;;;;8.05;3.50;;;;;;;28.70;39.02;99245.28;5102910;28;20060;-65
2022/08/30 09:00:26;;;;;;;13.02;3.42;;;;;;;28.69;39.15;99235.25;5105957;28;20054;-65
2022/08/30 09:03:00;;;;;;;5.78;3.25;;;;;;;28.67;39.18;99243.34;5102029;28;20059;-69
2022/08/30 09:05:34;;;;;;;10.23;3.33;;;;;;;28.67;39.19;99238.50;5104207;28;20325;-72
2022/08/30 09:08:03;;;;;;;11.00;3.65;;;;;;;28.72;39.10;99237.19;5102698;28;20052;-69
2022/08/30 09:10:32;;;;;;;6.75;3.13;;;;;;;28.66;39.46;99236.94;5107156;28;20058;-66
2022/08/30 09:12:58;;;;;;;5.28;3.38;;;;;;;28.69;39.31;99240.88;5101595;28;20101;-57
2022/08/30 09:15:27;;;;;;;7.40;3.17;;;;;;;28.70;38.95;99242.47;5102723;28;20130;-67
2022/08/30 09:18:07;;;;;;;11.43;3.78;;;;;;;28.73;38.38;99241.63;5104219;28;20044;-57
2022/08/30 09:20:36;;;;;;;4.95;3.33;;;;;;;28.75;38.36;99236.34;5105830;28;20039;-57
2022/08/30 09:23:14;;;;;;;7.47;3.47;;;;;;;28.72;37.99;99238.03;5108607;28;20048;-66
2022/08/30 09:26:01;;;;;;;6.95;3.50;;;;;;;28.72;37.77;99226.75;5108512;27;20039;-57
2022/08/30 09:28:30;;;;;;;9.15;3.30;;;;;;;28.73;37.97;99233.97;5102937;28;20077;-65
2022/08/30 09:31:00;;;;;;;7.60;3.55;;;;;;;28.75;37.67;99233.53;5102992;28;20054;-57
2022/08/30 09:33:26;;;;;;;5.55;2.90;;;;;;;28.77;37.88;99228.25;5101048;28;20047;-56
2022/08/30 09:35:52;;;;;;;5.20;3.10;;;;;;;28.77;37.46;99228.25;5105309;28;20046;-56
2022/08/30 09:38:25;;;;;;;9.45;3.15;;;;;;;28.74;37.44;99221.47;5108163;28;20047;-67
2022/08/30 09:40:53;;;;;;;6.40;3.50;;;;;;;28.77;37.07;99226.22;5100815;28;20055;-65
2022/08/30 09:43:25;;;;;;;5.82;2.92;;;;;;;28.76;37.45;99221.03;5103128;28;20582;-68
2022/08/30 09:46:00;;;;;;;5.90;2.95;;;;;;;28.81;37.40;99219.75;5105062;28;20115;-57
2022/08/30 09:48:25;;;;;;;7.32;3.53;;;;;;;28.84;37.33;99207.59;5104534;28;20035;-57
2022/08/30 09:51:09;;;;;;;8.05;3.08;;;;;;;28.87;36.82;99204.72;5101135;28;20051;-56
2022/08/30 09:53:44;;;;;;;9.57;3.58;;;;;;;28.81;36.62;99205.69;5106373;28;20036;-56
2022/08/30 09:56:45;;;;;;;8.30;3.22;;;;;;;28.69;37.85;99199.47;5099553;28;20121;-57
2022/08/30 09:59:45;;;;;;;10.90;2.72;;;;;;;28.70;37.58;99195.41;5066247;28;20088;-70
2022/08/30 10:02:23;;;;;;;9.30;3.22;;;;;;;28.77;37.65;99192.44;5092205;28;20520;-70
2022/08/30 10:04:54;;;;;;;9.40;3.10;;;;;;;28.78;37.09;99182.78;5109674;28;20080;-69
2022/08/30 10:07:51;;;;;;;4.30;2.50;;;;;;;28.65;38.62;99172.63;5104038;28;20543;-70
2022/08/30 10:10:30;;;;;;;6.20;2.80;;;;;;;28.60;38.28;99181.59;5097604;28;20046;-69
2022/08/30 10:13:19;;;;;;;6.85;2.33;;;;;;;28.64;38.12;99173.84;5104103;28;20036;-56
2022/08/30 10:15:52;;;;;;;6.45;2.25;;;;;;;28.71;38.06;99176.50;5104944;28;20047;-69
2022/08/30 10:18:28;;;;;;;4.22;2.20;;;;;;;28.72;37.31;99172.47;5101743;28;20055;-56
2022/08/30 10:21:00;;;;;;;3.38;2.45;;;;;;;28.58;38.47;99165.13;5101551;28;20434;-56
2022/08/30 10:23:36;;;;;;;4.88;2.13;;;;;;;28.55;38.52;99165.19;5100686;28;20068;-56
2022/08/30 10:26:32;;;;;;;3.60;2.20;;;;;;;28.60;38.34;99162.69;5103969;28;20118;-56
2022/08/30 10:29:13;;;;;;;3.15;2.25;;;;;;;28.69;38.16;99156.44;5104804;28;20051;-69
2022/08/30 10:32:09;;;;;;;3.00;1.80;;;;;;;28.69;37.16;99153.63;5099773;28;20063;-56
2022/08/30 10:34:40;;;;;;;3.53;2.00;;;;;;;28.56;38.83;99153.50;5101534;28;20039;-56
2022/08/30 10:37:16;;;;;;;3.28;2.00;;;;;;;28.54;38.45;99141.91;5101412;28;20076;-69
2022/08/30 10:39:48;;;;;;;2.80;1.80;;;;;;;28.59;38.20;99129.34;5111225;28;20086;-56
2022/08/30 10:42:25;;;;;;;3.17;2.05;;;;;;;28.67;37.85;99128.75;5110823;28;20056;-56
2022/08/30 10:45:03;;;;;;;6.40;1.90;;;;;;;28.72;37.39;99128.25;5108225;28;20052;-69
2022/08/30 10:47:43;;;;;;;3.13;1.80;;;;;;;28.70;36.90;99124.25;5109946;28;20047;-69
2022/08/30 10:50:15;;;;;;;3.20;1.90;;;;;;;28.59;38.27;99120.91;5109265;28;20070;-69
2022/08/30 10:52:51;;;;;;;4.40;2.00;;;;;;;28.61;37.99;99104.38;5102428;28;20054;-56
2022/08/30 10:55:24;;;;;;;3.08;1.83;;;;;;;28.66;37.79;99104.66;5106928;28;20419;-69
2022/08/30 10:57:50;;;;;;;;;;;;;;;28.73;37.35;99112.16;5107203;28;20044;-56
2022/08/30 11:00:26;;;;;;;2.28;1.60;;;;;;;28.67;37.24;99111.06;5095531;28;19922;-69
2022/08/30 11:02:57;;;;;;;3.83;1.70;;;;;;;28.55;38.61;99108.91;5112068;28;20071;-56
2022/08/30 11:05:28;;;;;;;3.50;2.08;;;;;;;28.55;38.25;99117.38;5106908;28;20063;-56
2022/08/30 11:08:00;;;;;;;3.97;1.60;;;;;;;28.62;38.02;99118.00;5087015;28;20047;-56
2022/08/30 11:10:41;;;;;;;2.72;1.60;;;;;;;28.66;37.67;99110.28;5108108;28;20043;-69
2022/08/30 11:13:37;;;;;;;2.72;1.60;;;;;;;28.57;38.64;99110.06;5111514;28;20481;-56
2022/08/30 11:16:08;;;;;;;2.55;1.50;;;;;;;28.52;38.70;99102.16;5096261;28;20073;-57
2022/08/30 11:18:45;;;;;;;2.33;1.45;;;;;;;28.59;38.34;99093.56;5109839;28;20048;-56
2022/08/30 11:21:36;;;;;;;1.92;1.20;;;;;;;28.67;38.70;99089.34;5099289;28;20078;-56
2022/08/30 11:24:09;;;;;;;2.38;1.50;;;;;;;28.76;38.07;99091.56;5109300;28;20073;-69
2022/08/30 11:26:43;;;;;;;1.77;1.35;;;;;;;28.64;38.82;99093.03;5101569;28;20542;-69
2022/08/30 11:29:28;;;;;;;2.00;1.45;;;;;;;28.56;39.26;99088.00;5109833;28;20043;-69
2022/08/30 11:31:58;;;;;;;1.80;1.23;;;;;;;28.57;38.54;99098.00;5104871;28;20084;-71
2022/08/30 11:34:46;;;;;;;2.90;1.55;;;;;;;28.45;38.21;99094.66;5102210;28;20399;-56
2022/08/30 11:37:36;;;;;;;3.17;1.38;;;;;;;28.38;40.79;99094.81;5093525;28;20055;-60
2022/08/30 11:40:21;;;;;;;2.45;1.20;;;;;;;28.31;39.47;99091.34;5092733;28;20047;-72
2022/08/30 11:42:49;;;;;;;3.63;1.40;;;;;;;28.22;40.12;99089.91;5097988;28;20067;-70
2022/08/30 11:45:20;;;;;;;2.30;1.50;;;;;;;28.27;41.37;99090.59;5093078;28;20046;-70
2022/08/30 11:47:49;;;;;;;11.60;1.80;;;;;;;28.33;41.53;99094.53;5097249;28;20054;-57
2022/08/30 11:50:48;;;;;;;4.03;1.70;;;;;;;28.31;40.13;99094.97;5088860;28;20044;-56